Aeroporto :
LOGIN :

Iscrizione | Disclaimer

   EN    FR    IT 

 










Sommario :    VFR   VFR Marginale   IFR   IFR Intensivo   IFR Molto Intensivo
Visibilità : 
Base nubi : 
>= 8 km
>= 3000ft
5 / 8 km
1000 / 3000 ft
1500m / 5 km
500 / 1000 ft
800 / 1500m
200 / 500 ft
< 800m
< 200 ft
Simboli :   Temporali  Nebbia  Neve Forte  Precipitazioni Forti  Vento > 20 kt
SIGMETs :   Varie  Temporali  Ghiacco  Turbolenza  Onda orograficha  Ceneri Vulcaniche






- Altitudine del aeroporto : 14 ft
- Codice IATA : URE


EEKE - Kuressaare

ULTIMO METAR :
  • 210250Z AUTO 24006KT 200V280 ////NDV FEW013 14/12 Q1015

METARs OBSOLETI :
  • 210220Z AUTO 24005KT 200V300 ////NDV FEW015 SCT022 13/12 Q1016
  • 210150Z AUTO 25003KT 210V290 ////NDV FEW016 13/11 Q1016
  • 210120Z AUTO 24004KT 210V270 ////NDV NSC 13/11 Q1016
  • 210050Z AUTO 26004KT 190V310 ////NDV FEW019 SCT026 13/11 Q1016
  • 210020Z AUTO 28004KT 230V320 ////NDV FEW019 BKN025 14/11 Q1016

Previsioni scadute.



MetMap, La meteo Aeronautica in un colpo d'occhio ! - Copyright ORBIFLY Dicembre 2007 - Disclaimer

ORBIFLY MET'MAP TEAM :

Programmazione e sviluppo : Alexandra Zaïnal
Concezione : Baudouin d'Aumeries
Aiuto per la programmazione : Marc-Olivier Méhu
Supporto tecnico e logistico : Manuel Goepfert
Aiuto per la traduzione : Arnaldo La Scala

Contatto : metmap@orbifly.com




FONTI E CREDITI :

   NOAA